FW8288 Weather Reports


time (UTC)temp
C
wind
direction
speed
KPH
gust
KPH
rain 1hr
cm
rain 24hr
cm
rain mn
cm
humidity
%
barometer
mb
20211017163113 21 79 3.2 14.5 0.00 0.00 0.00 42 1027.2
20211017161749 20 100 4.8 11.3 0.00 0.00 0.00 44 1027.1
20211017160135 20 49 3.2 9.7 0.00 0.00 0.00 50 1027.1
20211017154811 19 63 3.2 8.0 0.00 0.00 0.00 51 1027.3
20211017153139 18 94 3.2 6.4 0.00 0.00 0.00 55 1027.5
20211017151802 18 63 1.6 6.4 0.00 0.00 0.00 58 1027.6
20211017150142 17 74 1.6 6.4 0.00 0.00 0.00 61 1027.6
20211017144646 17 10 1.6 6.4 0.00 0.00 0.00 62 1027.5
20211017143155 16 42 3.2 6.4 0.00 0.00 0.00 67 1027.1
20211017141646 15 8 1.6 6.4 0.00 0.00 0.00 70 1027.2
20211017140122 14 11 3.2 6.4 0.00 0.00 0.00 72 1027.1
20211017134629 13 27 1.6 4.8 0.00 0.00 0.00 77 1026.9
20211017133130 11 0 0.0 1.6 0.00 0.00 0.00 84 1026.8
20211017131645 10 0 0.0 1.6 0.00 0.00 0.00 86 1026.7
20211017130143 10 0 0.0 0.0 0.00 0.00 0.00 88 1026.5
20211017124649 10 0 0.0 0.0 0.00 0.00 0.00 89 1026.5
20211017123141 10 0 0.0 0.0 0.00 0.00 0.00 89 1026.3
20211017121618 10 0 0.0 0.0 0.00 0.00 0.00 89 1026.3
20211017120109 10 0 0.0 0.0 0.00 0.00 0.00 89 1026.1
20211017114651 10 0 0.0 0.0 0.00 0.00 0.00 88 1026.0
20211017113147 10 0 0.0 0.0 0.00 0.00 0.00 88 1025.9
20211017111625 10 0 0.0 0.0 0.00 0.00 0.00 87 1025.9
20211017110307 10 0 0.0 0.0 0.00 0.00 0.00 87 1025.8
20211017104725 10 0 0.0 0.0 0.00 0.00 0.00 86 1025.7
20211017103226 10 0 0.0 0.0 0.00 0.00 0.00 85 1025.7
20211017101626 10 0 0.0 0.0 0.00 0.00 0.00 83 1025.6
20211017100141 10 0 0.0 0.0 0.00 0.00 0.00 83 1025.8
20211017094642 11 0 0.0 0.0 0.00 0.00 0.00 82 1025.7
20211017093126 11 0 0.0 0.0 0.00 0.00 0.00 82 1025.5
20211017091800 11 0 0.0 0.0 0.00 0.00 0.00 84 1025.5
20211017090136 11 0 0.0 0.0 0.00 0.00 0.00 84 1025.6
20211017084620 11 0 0.0 0.0 0.00 0.00 0.00 84 1025.5
20211017083239 11 0 0.0 0.0 0.00 0.00 0.00 85 1025.6
20211017081642 11 0 0.0 0.0 0.00 0.00 0.00 84 1025.9
20211017080201 11 0 0.0 0.0 0.00 0.00 0.00 82 1025.8
20211017074642 11 0 0.0 0.0 0.00 0.00 0.00 81 1025.8
20211017073129 12 0 0.0 0.0 0.00 0.00 0.00 82 1026.0
20211017071621 12 0 0.0 0.0 0.00 0.00 0.00 78 1025.9
20211017070128 12 0 0.0 0.0 0.00 0.00 0.00 76 1025.7
20211017064742 13 0 0.0 0.0 0.00 0.00 0.00 73 1025.6
20211017063142 13 0 0.0 0.0 0.00 0.00 0.00 71 1025.6
20211017061625 15 0 0.0 1.6 0.00 0.00 0.00 69 1025.6
20211017060211 15 358 0.0 1.6 0.00 0.00 0.00 67 1025.4
20211017054631 15 359 0.0 3.2 0.00 0.00 0.00 67 1025.4
20211017053127 15 7 0.0 3.2 0.00 0.00 0.00 66 1025.5
20211017051654 15 6 0.0 3.2 0.00 0.00 0.00 68 1025.4
20211017050235 15 15 0.0 1.6 0.00 0.00 0.00 68 1025.4
20211017044644 15 0 0.0 1.6 0.00 0.00 0.00 68 1025.3
20211017043154 15 8 0.0 3.2 0.00 0.00 0.00 67 1025.3
20211017041626 15 20 0.0 3.2 0.00 0.00 0.00 69 1025.4
20211017040208 15 0 0.0 1.6 0.00 0.00 0.00 73 1025.5
20211017034648 15 0 0.0 0.0 0.00 0.00 0.00 76 1025.5
20211017033128 14 0 0.0 0.0 0.00 0.00 0.00 77 1025.5
20211017031648 14 0 0.0 0.0 0.00 0.00 0.00 78 1025.5
20211017030259 15 0 0.0 0.0 0.00 0.00 0.00 76 1025.3
20211017024615 15 0 0.0 0.0 0.00 0.00 0.00 73 1025.3
20211017023154 15 0 0.0 0.0 0.00 0.00 0.00 72 1025.3
20211017021659 15 0 0.0 0.0 0.00 0.00 0.00 71 1025.1
20211017020200 15 0 0.0 0.0 0.00 0.00 0.00 67 1025.1
20211017014649 16 0 0.0 0.0 0.00 0.00 0.00 63 1025.0
20211017013326 16 0 0.0 0.0 0.00 0.00 0.00 60 1024.9
20211017011703 17 0 0.0 0.0 0.00 0.00 0.00 58 1024.7
20211017010230 17 0 0.0 0.0 0.00 0.00 0.00 57 1024.5
20211017004626 18 0 0.0 0.0 0.00 0.00 0.00 51 1024.5
20211017003256 18 0 0.0 0.0 0.00 0.00 0.00 50 1024.4
20211017001745 19 0 0.0 1.6 0.00 0.00 0.00 48 1024.1
20211017000225 20 0 0.0 4.8 0.00 0.00 0.00 45 1024.0
20211016234843 21 353 1.6 4.8 0.00 0.00 0.00 43 1023.8
20211016233129 21 290 1.6 6.4 0.00 0.00 0.00 41 1023.9
20211016231628 22 47 3.2 11.3 0.00 0.00 0.00 39 1023.9
20211016230132 22 21 3.2 12.9 0.00 0.00 0.00 39 1023.9
20211016224644 22 39 3.2 12.9 0.00 0.00 0.00 39 1023.9
20211016223159 22 311 4.8 12.9 0.00 0.00 0.00 38 1023.8
20211016221702 22 290 6.4 12.9 0.00 0.00 0.00 39 1023.6
20211016220205 22 8 3.2 14.5 0.00 0.00 0.00 40 1023.8
20211016214713 22 322 4.8 12.9 0.00 0.00 0.00 40 1023.8
20211016213201 23 296 3.2 9.7 0.00 0.00 0.00 40 1023.9
20211016211640 23 60 1.6 14.5 0.00 0.00 0.00 41 1024.0
20211016210221 23 356 4.8 12.9 0.00 0.00 0.00 41 1024.2
20211016204612 23 34 3.2 12.9 0.00 0.00 0.00 39 1024.1
20211016203137 23 76 3.2 12.9 0.00 0.00 0.00 40 1024.3
20211016201742 23 286 8.0 16.1 0.00 0.00 0.00 40 1024.3
20211016200301 23 4 3.2 14.5 0.00 0.00 0.00 39 1024.5
20211016194742 23 342 4.8 11.3 0.00 0.00 0.00 39 1024.5
20211016193258 23 20 3.2 12.9 0.00 0.00 0.00 41 1024.5
20211016191714 23 25 1.6 16.1 0.00 0.00 0.00 40 1024.6
20211016190214 22 26 4.8 12.9 0.00 0.00 0.00 40 1024.8
20211016184632 23 262 4.8 14.5 0.00 0.00 0.00 37 1024.9
20211016183128 22 61 4.8 16.1 0.00 0.00 0.00 38 1025.2
20211016181651 22 359 6.4 12.9 0.00 0.00 0.00 37 1025.3
20211016180403 22 38 6.4 14.5 0.00 0.00 0.00 36 1025.8
20211016174733 22 77 6.4 16.1 0.00 0.00 0.00 37 1025.8
20211016173257 22 56 8.0 20.9 0.00 0.00 0.00 38 1026.1
20211016171616 22 45 6.4 14.5 0.00 0.00 0.00 41 1026.3
20211016170132 21 20 6.4 16.1 0.00 0.00 0.00 44 1026.3
20211016164638 21 300 6.4 16.1 0.00 0.00 0.00 42 1026.4